Time;durP1;ratioP1;P1;durP2;ratioP2;P2;SDS_P1;SDS_P2;PMS_P1;PMS_P2;Temp;Humidity;BMP_temperature;BMP_pressure;BME280_temperature;BME280_humidity;BME280_pressure;Samples;Min_cycle;Max_cycle;Signal;HPM_P1;HPM_P2
2022/08/27 00:02:18;;;;;;;10.10;6.57;;;22.60;99.90;;;;;;5044274;28;20017;-83
2022/08/27 00:04:45;;;;;;;13.00;5.82;;;22.60;99.90;;;;;;5041786;28;20033;-81
2022/08/27 00:07:12;;;;;;;8.77;6.03;;;22.60;99.90;;;;;;5042326;28;20409;-82
2022/08/27 00:09:38;;;;;;;11.32;6.47;;;22.50;99.90;;;;;;5042364;28;20382;-83
2022/08/27 00:12:05;;;;;;;13.07;6.72;;;22.50;99.90;;;;;;5056781;28;20025;-81
2022/08/27 00:14:32;;;;;;;9.80;5.95;;;22.40;99.90;;;;;;5056959;28;20037;-81
2022/08/27 00:16:57;;;;;;;16.83;6.72;;;22.30;99.90;;;;;;5056594;28;20040;-81
2022/08/27 00:19:23;;;;;;;14.88;6.78;;;22.30;99.90;;;;;;5055021;28;20029;-82
2022/08/27 00:21:49;;;;;;;12.80;6.18;;;22.20;99.90;;;;;;5046428;28;20073;-82
2022/08/27 00:24:15;;;;;;;14.88;7.05;;;22.20;99.90;;;;;;5052677;28;20025;-82
2022/08/27 00:26:41;;;;;;;13.07;6.40;;;22.20;99.90;;;;;;5041690;28;20026;-82
2022/08/27 00:29:07;;;;;;;20.38;6.38;;;22.20;99.90;;;;;;5041668;28;20029;-82
2022/08/27 00:31:34;;;;;;;12.48;6.53;;;22.20;99.90;;;;;;5043346;28;20025;-83
2022/08/27 00:34:00;;;;;;;16.20;7.05;;;22.10;99.90;;;;;;5051779;28;20033;-83
2022/08/27 00:36:26;;;;;;;9.50;7.05;;;22.10;99.90;;;;;;5066991;28;20101;-81
2022/08/27 00:38:52;;;;;;;10.55;6.70;;;22.10;99.90;;;;;;5050411;28;20033;-82
2022/08/27 00:41:19;;;;;;;14.82;7.30;;;22.00;99.90;;;;;;5051061;28;20022;-81
2022/08/27 00:43:52;;;;;;;13.82;6.75;;;22.00;99.90;;;;;;5066492;28;20037;-84
2022/08/27 00:46:38;;;;;;;15.88;6.03;;;22.00;99.90;;;;;;5041343;28;20473;-84
2022/08/27 00:49:13;;;;;;;10.45;6.20;;;22.00;99.90;;;;;;5058446;28;20034;-84
2022/08/27 00:51:39;;;;;;;8.02;5.80;;;21.90;99.90;;;;;;5043832;28;20029;-81
2022/08/27 00:54:08;;;;;;;12.25;6.20;;;21.90;99.90;;;;;;5043249;28;20057;-84
2022/08/27 00:56:43;;;;;;;10.02;6.13;;;21.90;99.90;;;;;;5042782;28;20386;-82
2022/08/27 00:59:13;;;;;;;10.55;5.82;;;22.00;99.90;;;;;;5044001;28;20029;-82
2022/08/27 01:02:17;;;;;;;14.77;6.50;;;22.00;99.90;;;;;;5049330;28;20025;-81
2022/08/27 01:04:28;;;;;;;12.40;5.43;;;22.00;99.90;;;;;;5040487;28;20103;-83
2022/08/27 01:06:54;;;;;;;9.05;5.30;;;22.00;99.90;;;;;;5040457;28;20053;-82
2022/08/27 01:09:24;;;;;;;9.27;5.05;;;22.00;99.90;;;;;;5121990;22;20049;-87
2022/08/27 01:11:51;;;;;;;11.85;5.28;;;22.00;99.90;;;;;;5040223;28;20402;-89
2022/08/27 01:14:18;;;;;;;12.43;5.53;;;22.00;99.90;;;;;;5057389;28;20017;-86
2022/08/27 01:16:49;;;;;;;8.98;5.25;;;22.00;99.90;;;;;;5056324;28;20029;-88
2022/08/27 01:19:26;;;;;;;8.55;4.82;;;22.00;99.90;;;;;;5059614;28;20022;-85
2022/08/27 01:22:01;;;;;;;8.38;5.03;;;22.00;99.90;;;;;;5059495;28;20044;-88
2022/08/27 01:24:44;;;;;;;8.23;4.80;;;22.00;99.90;;;;;;5075195;28;20032;-85
2022/08/27 01:27:18;;;;;;;8.55;5.03;;;22.00;99.90;;;;;;5056499;28;20010;-87
2022/08/27 01:29:47;;;;;;;7.75;5.10;;;22.00;99.90;;;;;;5038049;28;20030;-87
2022/08/27 01:32:17;;;;;;;9.30;4.72;;;22.00;99.90;;;;;;5037400;28;20034;-87
2022/08/27 01:34:47;;;;;;;9.40;4.90;;;22.00;99.90;;;;;;5034533;28;20304;-88
2022/08/27 01:37:14;;;;;;;14.35;5.68;;;22.10;99.90;;;;;;5051498;28;20030;-86
2022/08/27 01:39:43;;;;;;;8.50;5.55;;;22.00;99.90;;;;;;5034514;28;20039;-86
2022/08/27 01:42:17;;;;;;;7.50;5.03;;;22.00;99.90;;;;;;5038067;28;20004;-88
2022/08/27 01:44:50;;;;;;;13.23;5.40;;;22.00;99.90;;;;;;5057859;28;20025;-85
2022/08/27 01:47:19;;;;;;;10.07;5.18;;;22.00;99.90;;;;;;5058040;28;20038;-86
2022/08/27 01:49:46;;;;;;;10.77;5.78;;;21.90;99.90;;;;;;5040889;28;20033;-85
2022/08/27 01:52:20;;;;;;;8.13;5.13;;;21.90;99.90;;;;;;5057712;28;20039;-87
2022/08/27 01:54:50;;;;;;;14.25;5.30;;;21.90;99.90;;;;;;5041330;28;20052;-87
2022/08/27 01:57:21;;;;;;;10.48;5.25;;;21.90;99.90;;;;;;5056771;28;20034;-86
2022/08/27 01:59:47;;;;;;;14.85;5.53;;;21.90;99.90;;;;;;5040395;28;20049;-87
2022/08/27 02:02:18;;;;;;;10.93;5.00;;;21.90;99.90;;;;;;5055144;28;20044;-88
2022/08/27 02:04:44;;;;;;;11.23;5.68;;;21.80;99.90;;;;;;5039724;28;20052;-88
2022/08/27 02:07:13;;;;;;;16.15;5.80;;;21.80;99.90;;;;;;5056951;28;20017;-86
2022/08/27 02:09:40;;;;;;;11.32;6.38;;;21.80;99.90;;;;;;5056548;28;20110;-89
2022/08/27 02:12:09;;;;;;;10.32;5.55;;;21.70;99.90;;;;;;5054514;28;20246;-87
2022/08/27 02:14:35;;;;;;;13.30;6.10;;;21.70;99.90;;;;;;5037908;28;20025;-87
2022/08/27 02:17:02;;;;;;;10.82;6.05;;;21.70;99.90;;;;;;5057744;28;20029;-87
2022/08/27 02:19:28;;;;;;;11.07;5.75;;;21.60;99.90;;;;;;5058291;28;20021;-84
2022/08/27 02:21:58;;;;;;;15.13;6.03;;;21.60;99.90;;;;;;5041847;28;20025;-86
2022/08/27 02:24:27;;;;;;;11.85;6.13;;;21.60;99.90;;;;;;5041712;28;20105;-87
2022/08/27 02:26:59;;;;;;;10.63;6.07;;;21.50;99.90;;;;;;5058473;28;20036;-86
2022/08/27 02:29:25;;;;;;;11.23;5.68;;;21.50;99.90;;;;;;5054785;28;20056;-87
2022/08/27 02:31:51;;;;;;;11.25;6.07;;;21.40;99.90;;;;;;5051589;28;20013;-86
2022/08/27 02:34:18;;;;;;;9.95;6.20;;;21.40;99.90;;;;;;5031269;28;20137;-87
2022/08/27 02:36:48;;;;;;;9.43;6.53;;;21.40;99.90;;;;;;5034632;28;20049;-89
2022/08/27 02:39:13;;;;;;;11.43;6.47;;;21.40;99.90;;;;;;5033847;28;20029;-87
2022/08/27 02:41:49;;;;;;;15.35;6.65;;;21.40;99.90;;;;;;5033807;28;20034;-87
2022/08/27 02:44:15;;;;;;;7.80;6.00;;;21.40;99.90;;;;;;5067080;28;20044;-87
2022/08/27 02:46:44;;;;;;;9.27;6.25;;;21.30;99.90;;;;;;5032660;28;20037;-88
2022/08/27 02:49:16;;;;;;;10.02;6.00;;;21.30;99.90;;;;;;5065096;28;20052;-87
2022/08/27 02:51:45;;;;;;;12.05;6.00;;;21.30;99.90;;;;;;5049996;28;20060;-88
2022/08/27 02:54:11;;;;;;;10.95;6.53;;;21.20;99.90;;;;;;5050028;28;20076;-86
2022/08/27 02:56:38;;;;;;;11.35;5.78;;;21.20;99.90;;;;;;5055046;28;20056;-88
2022/08/27 02:59:07;;;;;;;12.05;6.15;;;21.20;99.90;;;;;;5052815;28;20013;-88
2022/08/27 03:01:38;;;;;;;9.93;6.20;;;21.20;99.90;;;;;;5040900;28;20017;-87
2022/08/27 03:04:13;;;;;;;11.25;5.88;;;21.10;99.90;;;;;;5040717;28;20113;-88
2022/08/27 03:06:42;;;;;;;;;;;21.10;99.90;;;;;;5057337;28;20092;-87
2022/08/27 03:09:09;;;;;;;10.07;5.75;;;21.10;99.90;;;;;;5056399;28;19951;-87
2022/08/27 03:11:38;;;;;;;9.23;5.68;;;21.10;99.90;;;;;;5040193;28;20096;-88
2022/08/27 03:14:07;;;;;;;14.70;5.43;;;21.10;99.90;;;;;;5049918;28;20037;-88
2022/08/27 03:16:35;;;;;;;9.68;5.35;;;21.10;99.90;;;;;;5048450;28;20076;-87
2022/08/27 03:19:01;;;;;;;9.55;4.97;;;21.10;99.90;;;;;;5047165;28;20001;-88
2022/08/27 03:21:31;;;;;;;10.43;4.90;;;21.00;99.90;;;;;;5066972;28;20029;-85
2022/08/27 03:24:00;;;;;;;8.75;4.80;;;21.00;99.90;;;;;;5051540;28;20033;-87
2022/08/27 03:26:27;;;;;;;8.40;5.07;;;21.00;99.90;;;;;;5053514;28;20026;-86
2022/08/27 03:28:56;;;;;;;10.32;4.70;;;21.00;99.90;;;;;;5055855;28;20010;-88
2022/08/27 03:31:28;;;;;;;;;;;21.00;99.90;;;;;;5057895;28;20037;-88
2022/08/27 03:33:55;;;;;;;8.18;4.25;;;20.90;99.90;;;;;;5056524;28;19912;-86
2022/08/27 03:36:22;;;;;;;8.15;4.40;;;20.90;99.90;;;;;;5057056;28;20053;-88
2022/08/27 03:38:48;;;;;;;8.85;4.68;;;20.80;99.90;;;;;;5073418;28;20017;-89
2022/08/27 03:41:16;;;;;;;7.60;5.03;;;20.90;99.90;;;;;;5056885;28;20461;-87
2022/08/27 03:43:43;;;;;;;10.23;5.10;;;20.80;99.90;;;;;;5057262;28;20021;-87
2022/08/27 03:46:12;;;;;;;9.57;4.65;;;20.80;99.90;;;;;;5040655;28;20037;-88
2022/08/27 03:48:38;;;;;;;8.02;4.75;;;20.80;99.90;;;;;;5057215;28;20017;-87
2022/08/27 03:51:10;;;;;;;10.50;5.05;;;20.80;99.90;;;;;;5057731;28;20033;-87
2022/08/27 03:53:37;;;;;;;8.68;4.93;;;20.80;99.90;;;;;;5057847;28;20033;-86
2022/08/27 03:56:05;;;;;;;8.48;5.43;;;20.70;99.90;;;;;;5056907;28;20017;-86
2022/08/27 03:58:32;;;;;;;15.00;5.43;;;20.70;99.90;;;;;;5056717;28;20013;-86
2022/08/27 04:01:03;;;;;;;11.15;5.20;;;20.70;99.90;;;;;;5040631;28;20045;-86
2022/08/27 04:03:30;;;;;;;9.48;5.68;;;20.60;99.90;;;;;;5056764;28;20014;-86
2022/08/27 04:05:57;;;;;;;10.57;4.75;;;20.60;99.90;;;;;;5040438;28;20129;-88
2022/08/27 04:08:24;;;;;;;8.75;4.78;;;20.60;99.90;;;;;;5073048;28;20021;-86
2022/08/27 04:10:53;;;;;;;8.85;5.50;;;20.60;99.90;;;;;;5056515;28;20056;-86
2022/08/27 04:13:22;;;;;;;14.38;5.45;;;20.60;99.90;;;;;;5073265;28;20056;-84
2022/08/27 04:15:49;;;;;;;13.10;5.38;;;20.60;99.90;;;;;;5055074;28;20080;-87
2022/08/27 04:18:18;;;;;;;8.82;5.20;;;20.50;99.90;;;;;;5056865;28;20352;-86
2022/08/27 04:20:47;;;;;;;8.70;6.07;;;20.60;99.90;;;;;;5050732;28;20037;-85
2022/08/27 04:23:16;;;;;;;10.48;5.38;;;20.60;99.90;;;;;;5045341;28;20030;-86
2022/08/27 04:25:43;;;;;;;13.07;5.78;;;20.60;99.90;;;;;;5044293;28;20024;-87
2022/08/27 04:28:13;;;;;;;12.52;5.35;;;20.60;99.90;;;;;;5043064;28;20064;-86
2022/08/27 04:30:48;;;;;;;12.77;5.35;;;20.60;99.90;;;;;;5029386;28;20029;-87
2022/08/27 04:33:14;;;;;;;10.73;5.63;;;20.60;99.90;;;;;;5051770;28;20545;-88
2022/08/27 04:35:42;;;;;;;8.40;4.93;;;20.60;99.90;;;;;;5049930;28;20053;-87
2022/08/27 04:38:08;;;;;;;11.02;5.70;;;20.50;99.90;;;;;;5049948;28;20056;-87
2022/08/27 04:43:23;;;;;;;10.30;5.65;;;20.50;99.90;;;;;;5067874;28;20071;-86
2022/08/27 04:45:55;;;;;;;9.95;6.05;;;20.50;99.90;;;;;;5035356;28;20021;-88
2022/08/27 04:48:22;;;;;;;13.27;5.72;;;20.50;99.90;;;;;;5050389;28;20033;-88
2022/08/27 04:50:51;;;;;;;12.18;6.05;;;20.50;99.90;;;;;;5051044;28;20041;-86
2022/08/27 04:53:20;;;;;;;14.18;6.25;;;20.50;99.90;;;;;;5034335;28;20101;-87
2022/08/27 04:55:49;;;;;;;8.02;5.32;;;20.50;99.90;;;;;;5033086;28;20026;-88
2022/08/27 04:58:19;;;;;;;11.45;5.57;;;20.50;99.90;;;;;;5048222;28;20037;-88
2022/08/27 05:00:51;;;;;;;14.02;6.13;;;20.50;99.90;;;;;;5034633;28;20665;-86
2022/08/27 05:03:25;;;;;;;11.32;6.07;;;20.50;99.90;;;;;;5036808;28;20030;-87
2022/08/27 05:06:11;;;;;;;12.20;5.90;;;20.50;99.90;;;;;;5043285;28;20029;-87
2022/08/27 05:08:40;;;;;;;10.25;5.97;;;20.50;99.90;;;;;;5058307;28;20369;-87
2022/08/27 05:11:11;;;;;;;10.98;6.43;;;20.50;99.90;;;;;;5052929;28;20157;-86
2022/08/27 05:13:43;;;;;;;10.95;5.70;;;20.50;99.90;;;;;;5053025;28;20079;-87
2022/08/27 05:16:19;;;;;;;16.45;6.15;;;20.60;99.90;;;;;;5053323;28;20034;-87
2022/08/27 05:18:49;;;;;;;8.85;6.07;;;20.60;99.90;;;;;;5053530;28;20029;-85
2022/08/27 05:21:23;;;;;;;12.25;5.85;;;20.60;99.90;;;;;;5037418;28;20041;-88
2022/08/27 05:23:54;;;;;;;20.20;6.80;;;20.60;99.90;;;;;;5038485;28;20040;-87
2022/08/27 05:26:24;;;;;;;11.18;6.97;;;20.60;99.90;;;;;;5037795;28;20033;-88
2022/08/27 05:28:57;;;;;;;13.70;7.38;;;20.70;99.90;;;;;;5053677;28;20029;-87
2022/08/27 05:31:30;;;;;;;18.75;6.90;;;20.70;99.90;;;;;;5038370;28;20033;-86
2022/08/27 05:33:59;;;;;;;9.30;5.90;;;20.80;99.90;;;;;;5038708;28;20029;-88
2022/08/27 05:36:32;;;;;;;12.68;6.38;;;20.90;99.90;;;;;;5071770;28;20089;-88
2022/08/27 05:39:00;;;;;;;10.38;6.20;;;21.00;99.90;;;;;;5054610;28;20036;-88
2022/08/27 05:41:31;;;;;;;14.65;6.43;;;21.10;99.90;;;;;;5071351;28;20041;-88
2022/08/27 05:44:02;;;;;;;13.70;6.40;;;21.30;99.90;;;;;;5054494;28;20112;-86
2022/08/27 05:46:31;;;;;;;10.18;5.93;;;21.40;99.90;;;;;;5038758;28;20109;-87
2022/08/27 05:49:00;;;;;;;13.48;6.40;;;21.60;99.90;;;;;;5038798;28;20005;-87
2022/08/27 05:51:31;;;;;;;10.27;5.88;;;21.80;99.90;;;;;;5057347;28;20161;-87
2022/08/27 05:54:13;;;;;;;10.30;5.63;;;22.00;99.90;;;;;;5074468;28;20021;-86
2022/08/27 05:56:41;;;;;;;15.98;6.72;;;22.10;99.90;;;;;;5039295;28;20045;-87
2022/08/27 06:01:56;;;;;;;9.73;5.93;;;22.30;99.90;;;;;;5053098;28;20108;-87
2022/08/27 06:04:23;;;;;;;11.45;5.60;;;22.40;99.90;;;;;;5033611;28;20037;-89
2022/08/27 06:06:52;;;;;;;11.18;5.32;;;22.50;99.90;;;;;;5067723;28;20018;-87
2022/08/27 06:09:21;;;;;;;12.13;6.47;;;22.60;99.90;;;;;;5049797;28;20048;-87
2022/08/27 06:11:48;;;;;;;11.00;5.63;;;22.70;99.90;;;;;;5051261;28;20018;-87
2022/08/27 06:14:14;;;;;;;9.63;6.00;;;22.90;99.90;;;;;;5054856;28;20052;-87
2022/08/27 06:16:41;;;;;;;9.98;6.10;;;23.00;99.90;;;;;;5035323;28;20041;-87
2022/08/27 06:19:12;;;;;;;9.50;5.45;;;23.00;99.90;;;;;;5051050;28;20038;-88
2022/08/27 06:21:40;;;;;;;10.48;5.72;;;23.10;99.90;;;;;;5050807;28;20033;-87
2022/08/27 06:24:13;;;;;;;13.00;5.65;;;23.20;99.90;;;;;;5049591;28;20036;-87
2022/08/27 06:26:43;;;;;;;11.05;6.28;;;23.40;99.90;;;;;;5033578;28;20041;-87
2022/08/27 06:29:16;;;;;;;14.40;6.00;;;23.60;99.90;;;;;;5065040;28;20029;-89
2022/08/27 06:31:45;;;;;;;10.77;5.85;;;23.70;99.90;;;;;;5047553;28;20025;-89
2022/08/27 06:34:14;;;;;;;13.55;6.03;;;23.70;99.90;;;;;;5048332;28;20056;-87
2022/08/27 06:36:41;;;;;;;11.75;6.38;;;23.70;99.90;;;;;;5036520;28;20037;-89
2022/08/27 06:39:12;;;;;;;11.23;5.68;;;23.70;99.90;;;;;;5052368;28;20051;-88
2022/08/27 06:41:39;;;;;;;9.80;6.05;;;23.80;99.90;;;;;;5068637;28;20064;-88
2022/08/27 06:44:11;;;;;;;11.07;6.25;;;23.70;99.90;;;;;;5034738;28;20041;-89
2022/08/27 06:46:45;;;;;;;11.38;6.43;;;23.60;99.90;;;;;;5033478;28;20073;-89
2022/08/27 06:49:18;;;;;;;10.80;6.20;;;23.50;99.90;;;;;;5049268;28;20057;-89
2022/08/27 06:51:47;;;;;;;9.77;6.47;;;23.40;99.90;;;;;;5050090;28;20068;-87
2022/08/27 06:54:15;;;;;;;12.75;6.90;;;23.40;99.90;;;;;;5051322;28;20080;-88
2022/08/27 06:56:43;;;;;;;10.93;6.13;;;23.60;99.90;;;;;;5053307;28;20052;-89
2022/08/27 06:59:21;;;;;;;12.65;6.75;;;23.60;99.90;;;;;;5052697;28;20029;-90
2022/08/27 07:01:50;;;;;;;13.15;7.03;;;23.70;99.90;;;;;;5066987;28;20033;-89
2022/08/27 07:04:20;;;;;;;11.50;6.53;;;23.90;99.90;;;;;;5051822;28;20029;-88
2022/08/27 07:06:54;;;;;;;12.52;6.20;;;24.00;99.90;;;;;;5035866;28;20531;-87
2022/08/27 07:09:20;;;;;;;13.27;6.10;;;24.00;99.90;;;;;;5062833;23;20075;-82
2022/08/27 07:11:46;;;;;;;16.05;6.90;;;24.20;99.90;;;;;;5073236;28;20036;-82
2022/08/27 07:14:12;;;;;;;12.55;6.47;;;24.40;99.90;;;;;;5038445;28;20056;-81
2022/08/27 07:16:38;;;;;;;8.68;5.43;;;24.70;99.90;;;;;;5054690;28;20037;-80
2022/08/27 07:19:04;;;;;;;7.78;5.30;;;25.00;99.90;;;;;;5069261;28;20029;-80
2022/08/27 07:21:32;;;;;;;8.38;5.47;;;25.10;99.90;;;;;;5054825;28;20037;-81
2022/08/27 07:24:02;;;;;;;12.27;5.30;;;25.30;99.90;;;;;;5035710;28;20045;-82
2022/08/27 07:26:28;;;;;;;12.18;5.22;;;25.30;99.90;;;;;;5042806;28;20033;-83
2022/08/27 07:28:53;;;;;;;9.63;5.00;;;25.30;99.90;;;;;;5046244;28;20053;-82
2022/08/27 07:31:22;;;;;;;8.88;5.32;;;25.70;99.90;;;;;;5037522;28;20100;-81
2022/08/27 07:33:49;;;;;;;9.07;4.57;;;25.90;99.90;;;;;;5037188;28;20014;-82
2022/08/27 07:36:15;;;;;;;9.00;4.80;;;26.00;99.90;;;;;;5054350;28;20060;-82
2022/08/27 07:38:41;;;;;;;9.00;4.60;;;26.00;99.90;;;;;;5035588;28;20033;-81
2022/08/27 07:41:11;;;;;;;7.47;4.40;;;26.10;99.90;;;;;;5020091;28;20026;-81
2022/08/27 07:46:24;;;;;;;;;;;26.10;99.90;;;;;;5054854;28;20473;-83
2022/08/27 07:48:51;;;;;;;13.07;4.68;;;26.10;99.90;;;;;;5052076;28;19931;-82
2022/08/27 07:51:19;;;;;;;8.20;4.63;;;26.00;99.90;;;;;;5030826;28;20049;-82
2022/08/27 07:53:46;;;;;;;8.30;4.38;;;26.10;99.90;;;;;;5044703;28;20055;-83
2022/08/27 07:56:12;;;;;;;8.45;4.60;;;26.10;99.90;;;;;;5048594;28;20432;-83
2022/08/27 07:58:39;;;;;;;9.27;4.65;;;26.10;99.90;;;;;;5045843;28;20025;-82
2022/08/27 08:01:06;;;;;;;8.60;4.50;;;26.10;99.90;;;;;;5046256;28;20065;-84
2022/08/27 08:03:31;;;;;;;10.90;5.40;;;26.10;99.90;;;;;;5040018;28;20101;-82
2022/08/27 08:06:04;;;;;;;9.02;4.95;;;26.20;99.90;;;;;;5040197;28;20097;-81
2022/08/27 08:08:32;;;;;;;7.85;4.22;;;26.30;99.90;;;;;;5045116;28;20033;-83
2022/08/27 08:10:57;;;;;;;8.63;4.80;;;26.30;99.90;;;;;;5025859;28;20037;-84
2022/08/27 08:13:23;;;;;;;8.68;4.85;;;26.40;99.90;;;;;;5026607;28;20035;-82
2022/08/27 08:15:49;;;;;;;9.80;4.43;;;26.50;99.90;;;;;;5046528;28;20041;-85
2022/08/27 08:18:15;;;;;;;12.13;5.40;;;26.60;99.90;;;;;;5046894;28;20034;-84
2022/08/27 08:20:41;;;;;;;8.48;4.88;;;26.70;99.90;;;;;;5046655;28;20044;-84
2022/08/27 08:23:07;;;;;;;8.00;5.45;;;26.70;99.90;;;;;;5048986;28;20028;-82
2022/08/27 08:25:33;;;;;;;6.93;4.63;;;26.60;99.90;;;;;;5044377;28;20481;-82
2022/08/27 08:28:00;;;;;;;7.65;4.82;;;26.60;99.90;;;;;;5042513;28;20033;-82
2022/08/27 08:30:27;;;;;;;8.40;4.93;;;26.70;99.90;;;;;;5045846;28;20025;-82
2022/08/27 08:32:53;;;;;;;6.97;5.00;;;26.80;99.90;;;;;;5044479;28;20025;-82
2022/08/27 08:35:19;;;;;;;6.90;4.97;;;26.80;99.90;;;;;;5041385;28;20508;-81
2022/08/27 08:37:45;;;;;;;10.07;4.72;;;26.70;99.90;;;;;;5042700;28;20045;-84
2022/08/27 08:40:30;;;;;;;9.57;5.28;;;26.60;99.90;;;;;;5049837;28;20018;-84
2022/08/27 08:42:56;;;;;;;;;;;26.60;99.90;;;;;;5045768;28;20021;-83
2022/08/27 08:45:31;;;;;;;12.02;5.38;;;26.50;99.90;;;;;;5046663;28;20047;-83
2022/08/27 08:48:18;;;;;;;7.55;4.35;;;26.50;99.90;;;;;;5026874;28;20124;-82
2022/08/27 08:51:00;;;;;;;7.72;5.32;;;26.50;99.90;;;;;;5049808;28;20082;-81
2022/08/27 08:53:35;;;;;;;10.00;4.80;;;26.50;99.90;;;;;;5058566;28;20014;-81
2022/08/27 08:56:03;;;;;;;;;;;26.40;99.90;;;;;;5058538;28;20022;-80
2022/08/27 08:58:41;;;;;;;9.13;4.68;;;26.50;99.90;;;;;;5026041;28;20007;-84
2022/08/27 09:01:09;;;;;;;6.13;4.35;;;26.50;99.90;;;;;;5029028;28;20118;-83
2022/08/27 09:03:40;;;;;;;6.15;4.35;;;26.60;99.90;;;;;;5034772;28;20128;-82
2022/08/27 09:06:20;;;;;;;6.18;4.70;;;26.80;99.90;;;;;;5052234;28;20486;-82
2022/08/27 09:08:46;;;;;;;7.45;4.72;;;27.00;99.90;;;;;;5055764;28;20112;-81
2022/08/27 09:11:44;;;;;;;9.35;4.90;;;27.40;99.90;;;;;;5037058;28;20029;-80
2022/08/27 09:14:33;;;;;;;8.95;5.07;;;27.70;99.90;;;;;;5054422;28;20037;-82
2022/08/27 09:17:01;;;;;;;8.98;4.47;;;28.00;99.90;;;;;;5054840;28;20075;-82
2022/08/27 09:19:27;;;;;;;6.85;5.10;;;28.40;99.90;;;;;;5055776;28;20021;-81
2022/08/27 09:22:07;;;;;;;7.63;4.63;;;29.20;99.90;;;;;;5032561;28;20041;-82
2022/08/27 09:24:45;;;;;;;8.77;5.00;;;29.90;99.80;;;;;;5025055;28;20025;-82
2022/08/27 09:27:13;;;;;;;9.68;4.82;;;30.60;98.70;;;;;;5023683;28;20037;-81
2022/08/27 09:29:48;;;;;;;6.40;4.50;;;30.30;98.40;;;;;;5022817;28;20026;-81
2022/08/27 09:32:13;;;;;;;;;;;31.10;97.40;;;;;;5042555;28;20049;-84
2022/08/27 09:34:42;;;;;;;8.23;4.35;;;31.90;96.10;;;;;;5045699;28;19920;-82
2022/08/27 09:37:23;;;;;;;6.72;4.25;;;32.20;95.00;;;;;;5052580;28;20037;-83
2022/08/27 09:40:10;;;;;;;8.02;4.70;;;31.70;95.00;;;;;;5053366;28;20052;-81
2022/08/27 09:42:45;;;;;;;9.18;4.30;;;31.90;94.00;;;;;;5053122;28;20036;-82
2022/08/27 09:45:15;;;;;;;7.40;4.57;;;32.50;93.40;;;;;;5048213;28;20025;-82
2022/08/27 09:47:50;;;;;;;5.68;4.32;;;32.80;92.90;;;;;;5038256;28;20021;-80
2022/08/27 09:50:20;;;;;;;7.85;4.03;;;33.60;91.90;;;;;;5058115;28;20055;-80
2022/08/27 09:52:58;;;;;;;8.20;4.18;;;34.50;90.30;;;;;;5058183;28;20037;-80
2022/08/27 09:55:51;;;;;;;5.88;4.13;;;35.60;87.60;;;;;;5040770;28;20048;-81
2022/08/27 09:58:25;;;;;;;8.15;4.35;;;36.60;83.50;;;;;;5040468;28;20025;-81
2022/08/27 10:01:04;;;;;;;5.25;3.95;;;37.30;80.90;;;;;;5058223;28;20052;-79
2022/08/27 10:03:29;;;;;;;13.30;4.22;;;38.00;78.20;;;;;;5040717;28;20030;-82
2022/08/27 10:05:56;;;;;;;7.63;4.15;;;38.70;75.20;;;;;;5057907;28;20308;-80
2022/08/27 10:08:45;;;;;;;6.95;3.83;;;38.50;75.00;;;;;;5057503;28;20034;-80
2022/08/27 10:11:19;;;;;;;6.50;3.88;;;39.40;72.70;;;;;;5057779;28;20076;-80
2022/08/27 10:14:11;;;;;;;6.00;3.97;;;39.90;71.20;;;;;;5049239;28;20485;-83
2022/08/27 10:16:46;;;;;;;6.72;3.95;;;41.00;68.90;;;;;;5043055;28;20040;-83
2022/08/27 10:19:24;;;;;;;6.65;4.25;;;41.40;67.00;;;;;;5040824;28;20056;-82
2022/08/27 10:22:22;;;;;;;6.10;3.88;;;41.40;66.10;;;;;;5045015;28;20022;-82
2022/08/27 10:25:02;;;;;;;6.30;3.90;;;41.40;65.30;;;;;;5044956;28;20057;-84
2022/08/27 10:27:51;;;;;;;6.13;4.00;;;41.90;64.20;;;;;;5042524;28;20025;-83
2022/08/27 10:30:31;;;;;;;7.22;3.90;;;41.80;63.50;;;;;;5041562;28;20029;-82
2022/08/27 10:33:18;;;;;;;5.22;3.45;;;41.40;63.60;;;;;;5043083;28;20480;-83
2022/08/27 10:35:57;;;;;;;6.50;4.00;;;42.20;62.30;;;;;;5023832;28;20394;-83
2022/08/27 10:38:48;;;;;;;6.20;4.05;;;42.50;61.10;;;;;;5006022;28;20063;-82
2022/08/27 10:41:28;;;;;;;6.00;3.90;;;42.00;61.20;;;;;;5021596;28;20022;-84
2022/08/27 10:44:03;;;;;;;5.85;3.40;;;42.20;60.70;;;;;;5038826;28;20064;-85
2022/08/27 10:46:43;;;;;;;5.22;3.63;;;42.20;60.30;;;;;;5040908;28;20030;-82
2022/08/27 10:49:28;;;;;;;5.80;3.67;;;42.30;59.90;;;;;;5042370;28;20068;-82
2022/08/27 10:52:11;;;;;;;7.13;3.83;;;43.10;59.40;;;;;;5047140;28;20021;-82
2022/08/27 10:54:55;;;;;;;5.70;4.07;;;43.30;58.40;;;;;;5039703;28;20021;-82
2022/08/27 10:57:52;;;;;;;5.78;3.78;;;43.60;57.90;;;;;;5039551;28;20052;-83
2022/08/27 11:00:20;;;;;;;6.57;4.20;;;43.50;57.80;;;;;;5024906;28;20033;-82
2022/08/27 11:02:59;;;;;;;8.73;4.43;;;43.60;57.30;;;;;;5028915;28;20029;-84
2022/08/27 11:05:38;;;;;;;7.20;4.35;;;41.20;58.30;;;;;;5038918;28;20065;-81
2022/08/27 11:08:37;;;;;;;8.77;4.10;;;40.80;59.80;;;;;;5038654;28;20060;-82
2022/08/27 11:11:37;;;;;;;7.47;4.05;;;42.50;57.90;;;;;;5026775;28;20088;-84
2022/08/27 11:14:12;;;;;;;7.38;4.57;;;42.70;57.60;;;;;;5033088;28;20041;-83
2022/08/27 11:16:50;;;;;;;10.32;4.22;;;43.10;57.20;;;;;;5049671;28;20061;-83
2022/08/27 11:19:42;;;;;;;7.05;3.97;;;44.00;56.50;;;;;;5048271;28;20040;-84
2022/08/27 11:22:19;;;;;;;4.35;3.75;;;44.90;55.40;;;;;;5043251;28;20033;-83
2022/08/27 11:24:53;;;;;;;9.32;4.57;;;44.90;55.20;;;;;;5021991;28;20033;-83
2022/08/27 11:27:24;;;;;;;10.48;4.78;;;42.80;56.00;;;;;;5031321;28;20092;-83
2022/08/27 11:30:14;;;;;;;9.02;4.47;;;43.60;56.00;;;;;;5052043;28;20077;-81
2022/08/27 11:33:30;;;;;;;5.72;4.18;;;43.70;55.70;;;;;;5054148;28;20092;-82
2022/08/27 11:36:32;;;;;;;7.35;4.65;;;44.70;55.10;;;;;;4974320;28;20046;-82
2022/08/27 11:39:12;;;;;;;7.65;5.15;;;45.20;54.50;;;;;;5050476;28;20025;-80
2022/08/27 11:42:02;;;;;;;7.30;4.15;;;44.70;54.30;;;;;;5054176;28;20116;-81
2022/08/27 11:44:28;;;;;;;6.03;4.50;;;44.40;54.40;;;;;;5053668;28;20040;-82
2022/08/27 11:47:13;;;;;;;8.25;4.20;;;44.30;54.30;;;;;;5055371;28;20069;-81
2022/08/27 11:49:51;;;;;;;10.27;4.00;;;43.50;54.70;;;;;;5053658;28;20030;-81
2022/08/27 11:52:39;;;;;;;7.35;4.05;;;43.20;55.20;;;;;;5055157;28;20033;-81
2022/08/27 11:55:20;;;;;;;10.95;4.28;;;43.80;54.80;;;;;;5036808;28;20037;-83
2022/08/27 11:58:01;;;;;;;6.80;4.43;;;43.60;55.10;;;;;;5055092;28;20038;-82
2022/08/27 12:00:29;;;;;;;6.80;4.47;;;43.30;55.20;;;;;;5054891;28;20029;-81
2022/08/27 12:03:08;;;;;;;10.32;4.50;;;43.20;55.00;;;;;;5054464;28;20013;-81
2022/08/27 12:05:40;;;;;;;9.02;4.63;;;44.30;54.20;;;;;;5035592;28;20041;-81
2022/08/27 12:08:20;;;;;;;12.00;4.30;;;44.80;53.80;;;;;;5053058;28;20102;-80
2022/08/27 12:11:05;;;;;;;7.53;4.40;;;44.90;53.70;;;;;;5054387;28;20041;-82
2022/08/27 12:13:52;;;;;;;6.28;3.67;;;44.70;53.70;;;;;;5054697;28;20037;-82
2022/08/27 12:16:44;;;;;;;8.50;4.53;;;44.40;53.80;;;;;;5054584;28;20056;-81
2022/08/27 12:19:22;;;;;;;7.15;4.15;;;45.40;53.00;;;;;;5037320;28;20018;-84
2022/08/27 12:21:54;;;;;;;8.38;4.38;;;45.50;52.60;;;;;;5053081;28;20025;-82
2022/08/27 12:24:40;;;;;;;8.80;4.55;;;45.50;52.30;;;;;;5039032;28;20235;-81
2022/08/27 12:27:20;;;;;;;6.68;4.35;;;44.60;52.90;;;;;;5033018;28;20041;-82
2022/08/27 12:30:00;;;;;;;7.25;3.85;;;44.10;53.40;;;;;;5031252;28;20033;-83
2022/08/27 12:32:35;;;;;;;12.10;4.50;;;43.40;54.20;;;;;;5048050;28;20033;-83
2022/08/27 12:35:07;;;;;;;12.57;5.28;;;42.00;55.00;;;;;;5046540;28;20029;-84
2022/08/27 12:37:53;;;;;;;11.07;4.53;;;40.30;56.70;;;;;;5049764;28;20070;-81
2022/08/27 12:40:28;;;;;;;10.77;4.57;;;38.50;59.00;;;;;;5049800;28;20731;-82
2022/08/27 12:43:24;;;;;;;7.32;4.97;;;37.30;60.80;;;;;;5058145;28;20027;-80
2022/08/27 12:46:02;;;;;;;8.50;4.93;;;37.10;61.10;;;;;;5045839;28;20045;-81
2022/08/27 12:48:36;;;;;;;12.32;5.15;;;36.60;62.20;;;;;;5057260;28;20041;-81
2022/08/27 12:51:06;;;;;;;7.38;4.25;;;37.10;61.50;;;;;;5055549;28;20037;-80
2022/08/27 12:53:45;;;;;;;11.98;4.53;;;37.50;60.80;;;;;;5054997;28;20098;-81
2022/08/27 12:56:33;;;;;;;7.60;4.68;;;37.50;60.60;;;;;;5055687;28;20033;-79
2022/08/27 12:59:53;;;;;;;9.10;4.50;;;37.60;60.60;;;;;;5053552;28;20025;-81
2022/08/27 13:02:36;;;;;;;7.28;3.92;;;37.60;60.80;;;;;;4990652;28;20155;-81
2022/08/27 13:05:04;;;;;;;8.48;3.88;;;38.70;59.50;;;;;;5029307;28;20038;-82
2022/08/27 13:07:33;;;;;;;9.43;4.22;;;40.00;58.30;;;;;;5050980;28;20112;-80
2022/08/27 13:23:00;;;;;;;6.60;4.00;;;39.40;58.70;;;;;;4969853;29;20125;-89
2022/08/27 13:46:00;;;;;;;8.18;4.38;;;38.90;58.50;;;;;;4828063;29;20117;-86
2022/08/27 13:57:38;;;;;;;7.40;4.00;;;39.00;59.00;;;;;;4811852;29;20050;-85
2022/08/27 14:01:36;;;;;;;7.53;4.57;;;39.30;58.10;;;;;;4836210;29;20042;-85
2022/08/27 14:04:53;;;;;;;;;;;;;;;;;;;;;
2022/08/27 14:08:23;;;;;;;;;;;;;;;;;;;;;